This is the latest recevied weather packets stored in our database for station/object RW6A-13. If no packets are shown the sender has not sent any weather packets the latest 10 day(s).
| Time | Temp. | Humidity | Pressure | Rain* | Wind** | Luminosity | Snow |
|---|---|---|---|---|---|---|---|
| 1778230543 | 25° C | 57% | 1012.6 hPa | 0 mm | - | - | - |
| 1778230244 | 25° C | 60% | 1012.6 hPa | 0 mm | - | - | - |
| 1778229943 | 24.44° C | 59% | 1012.7 hPa | 0 mm | - | - | - |
| 1778229643 | 24.44° C | 60% | 1012.7 hPa | 0 mm | - | - | - |
| 1778229344 | 23.33° C | 62% | 1012.8 hPa | 0 mm | - | - | - |
| 1778229044 | 24.44° C | 59% | 1012.8 hPa | 0 mm | - | - | - |
| 1778228743 | 25° C | 58% | 1012.8 hPa | 0 mm | - | - | - |
| 1778228443 | 25° C | 58% | 1012.9 hPa | 0 mm | - | - | - |
| 1778228143 | 24.44° C | 59% | 1012.9 hPa | 0 mm | - | - | - |
| 1778227843 | 24.44° C | 60% | 1013 hPa | 0 mm | - | - | - |
| 1778227544 | 23.33° C | 62% | 1012.9 hPa | 0 mm | - | - | - |
| 1778227243 | 23.89° C | 61% | 1013 hPa | 0 mm | - | - | - |
| 1778226943 | 24.44° C | 58% | 1013.1 hPa | 0 mm | - | - | - |
| 1778226643 | 25° C | 59% | 1013.1 hPa | 0 mm | - | - | - |
| 1778226343 | 23.89° C | 60% | 1013.1 hPa | 0 mm | - | - | - |
| 1778226043 | 23.89° C | 60% | 1013.2 hPa | 0 mm | - | - | - |
| 1778225743 | 23.33° C | 61% | 1013.2 hPa | 0 mm | - | - | - |
| 1778225443 | 23.33° C | 61% | 1013.1 hPa | 0 mm | - | - | - |
| 1778225142 | 23.89° C | 61% | 1013.2 hPa | 0 mm | - | - | - |
| 1778224842 | 23.33° C | 62% | 1013.2 hPa | 0 mm | - | - | - |
| 1778224543 | 23.33° C | 62% | 1013.3 hPa | 0 mm | - | - | - |
| 1778224242 | 22.78° C | 62% | 1013.3 hPa | 0 mm | - | - | - |
| 1778223943 | 22.78° C | 62% | 1013.3 hPa | 0 mm | - | - | - |
| 1778223643 | 22.22° C | 64% | 1013.4 hPa | 0 mm | - | - | - |
| 1778223342 | 21.67° C | 65% | 1013.4 hPa | 0 mm | - | - | - |
* Rain latest hour (hover to see other rain measurements)
** Current wind speed in m/s (hover to see current wind gust speed)